Terminal Aerodrome Forecast
Issued by NWS

Home | Current Version | Previous Version | Text Only | Print | Product List | Glossary On
Versions: 1 2 3 4 5 6 7 8 9 10 11 12 13 14 15 16 17 18 19
263
FTUS44 KCRP 191741
TAFALI
TAF
KALI 191741Z 1918/2018 17009KT P6SM SCT035
     FM192000 15013G20KT P6SM SCT035
     FM200200 14009KT P6SM SCT015
      TEMPO 2009/2012 4SM BR BKN015
     FM201400 18012KT P6SM SCT025=

USA.gov is the U.S. government's official web portal to all federal, state and local government web resources and services.